Flight Track Log - Related Links

Times and Time Zones

All times are in EDT time to prevent confusion due to time zone crossing. See the UAL395 flight status page for this flight to view local times or setup timezone preferences in your user account.

Time Position Orientation Groundspeed Altitude Reporting Facility
EDT Latitude Longitude Course Direction KTS MPH feet Rate Location/Type
Sun 02:24:09 PM 29.9786 -95.2981 334° Northwest 180 207 700  Level Houston Center
Sun 02:25:04 PM 30.0203 -95.2736 27° Northeast 242 278 2,600 1,699 Climbing Houston Center
Sun 02:26:02 PM 30.0889 -95.2831 353° North 252 290 3,900 1,850 Climbing Houston Center
Sun 02:27:00 PM 30.3892 -95.5718 334° Northwest  Level FlightAware Approximate
Sun 02:27:04 PM 30.1644 -95.2944 353° North 271 312 6,300  Level Houston Center
Sun 02:28:00 PM 30.4921 -95.6289 334° Northwest  Level FlightAware Approximate
Sun 02:28:14 PM 30.2500 -95.3281 341° North 288 331 10,100  Level Houston Center
Sun 02:29:00 PM 30.5955 -95.6845 334° Northwest  Level FlightAware Approximate
Sun 02:29:08 PM 30.2975 -95.3803 316° Northwest 291 335 12,400  Level Houston Center
Sun 02:30:10 PM 30.3606 -95.4508 316° Northwest 308 354 14,300 1,984 Climbing Houston Center
Sun 02:31:12 PM 30.4289 -95.5286 316° Northwest 336 387 16,500 2,710 Climbing Houston Center
Sun 02:32:14 PM 30.5106 -95.6236 315° West 345 397 19,900 2,806 Climbing Houston Center
Sun 02:33:16 PM 30.5928 -95.6833 328° Northwest 352 405 22,300 1,920 Climbing Houston Center
Sun 02:34:19 PM 30.6839 -95.7311 336° Northwest 359 413 23,900 1,632 Climbing Houston Center
Sun 02:35:21 PM 30.7903 -95.7883 335° Northwest 368 423 25,700 1,258 Climbing Houston Center
Sun 02:36:23 PM 30.8892 -95.8417 335° Northwest 383 441 26,500 774 Climbing Houston Center
Sun 02:37:25 PM 30.9992 -95.9003 335° Northwest 420 483 27,300 1,113 Climbing Houston Center
Sun 02:38:27 PM 31.1119 -95.9600 336° Northwest 439 505 28,800 1,403 Climbing Houston Center
Sun 02:38:42 PM 31.1383 -95.9717 339° North 428 493 29,100 1,040 Climbing Fort Worth Center
Sun 02:39:42 PM 31.2600 -96.0208 341° North 444 511 30,100 1,200 Climbing Fort Worth Center
Sun 02:40:42 PM 31.3794 -96.0678 341° North 455 524 31,500 1,350 Climbing Fort Worth Center
Sun 02:41:42 PM 31.4989 -96.1122 342° North 455 524 32,800 1,300 Climbing Fort Worth Center
Sun 02:42:42 PM 31.6183 -96.1619 340° North 456 525 34,100 1,150 Climbing Fort Worth Center
Sun 02:43:42 PM 31.7419 -96.2067 343° North 456 525 35,100 950 Climbing Fort Worth Center
Sun 02:44:42 PM 31.8697 -96.2586 341° North 441 507 36,000 450 Climbing Fort Worth Center
Sun 02:45:42 PM 31.9914 -96.3039 342° North 449 517 36,000  Level Fort Worth Center
Sun 02:46:42 PM 32.0961 -96.3492 340° North 449 517 36,000  Level Fort Worth Center
Sun 02:47:42 PM 32.2072 -96.4067 336° Northwest 444 511 36,000  Level Fort Worth Center
Sun 02:48:42 PM 32.2956 -96.5039 317° Northwest 435 501 36,000  Level Fort Worth Center
Sun 02:49:42 PM 32.3819 -96.6017 316° Northwest 435 501 36,000  Level Fort Worth Center
Sun 02:50:42 PM 32.4703 -96.6994 317° Northwest 427 491 36,000  Level Fort Worth Center
Sun 02:51:42 PM 32.5564 -96.7997 316° Northwest 427 491 36,000  Level Fort Worth Center
Sun 02:52:42 PM 32.6508 -96.9075 316° Northwest 435 501 36,000  Level Fort Worth Center
Sun 02:53:42 PM 32.7389 -97.0083 316° Northwest 435 501 36,000  Level Fort Worth Center
Sun 02:54:42 PM 32.8289 -97.1094 317° Northwest 435 501 36,000  Level Fort Worth Center
Sun 02:55:42 PM 32.9167 -97.2131 315° West 435 501 36,000  Level Fort Worth Center
Sun 02:56:42 PM 32.9983 -97.3194 312° West 430 495 36,000  Level Fort Worth Center
Sun 02:57:42 PM 33.0775 -97.4183 314° West 442 509 36,000  Level Fort Worth Center
Sun 02:58:42 PM 33.1611 -97.5250 313° West 442 509 36,000  Level Fort Worth Center
Sun 02:59:42 PM 33.2422 -97.6319 312° West 442 509 36,000  Level Fort Worth Center
Sun 03:00:42 PM 33.3361 -97.7492 314° West 442 509 36,000  Level Fort Worth Center
Sun 03:01:42 PM 33.4192 -97.8564 313° West 434 499 36,000  Level Fort Worth Center
Sun 03:02:42 PM 33.4917 -97.9739 307° West 440 506 36,000  Level Fort Worth Center
Sun 03:03:42 PM 33.5536 -98.0989 301° West 445 512 36,000  Level Fort Worth Center
Sun 03:04:42 PM 33.6178 -98.2217 302° West 434 499 36,000  Level Fort Worth Center
Sun 03:05:42 PM 33.6814 -98.3469 301° West 434 499 36,000  Level Fort Worth Center
Sun 03:06:42 PM 33.7453 -98.4700 302° West 440 506 36,000  Level Fort Worth Center
Sun 03:07:42 PM 33.8047 -98.5958 300° West 440 506 36,000  Level Fort Worth Center
Sun 03:08:42 PM 33.8703 -98.7192 303° West 435 501 36,000  Level Fort Worth Center
Sun 03:09:42 PM 33.9294 -98.8403 301° West 429 494 36,000  Level Fort Worth Center
Sun 03:10:42 PM 33.9925 -98.9617 302° West 429 494 36,000  Level Fort Worth Center
Sun 03:11:42 PM 34.0536 -99.0856 301° West 435 501 36,000  Level Fort Worth Center
Sun 03:12:42 PM 34.1144 -99.2122 300° West 440 506 36,000  Level Fort Worth Center
Sun 03:13:42 PM 34.1772 -99.3389 301° West 440 506 36,000  Level Fort Worth Center
Sun 03:14:42 PM 34.2400 -99.4658 301° West 435 501 36,000  Level Fort Worth Center
Sun 03:15:42 PM 34.3003 -99.5906 300° West 435 501 36,000  Level Fort Worth Center
Sun 03:17:35 PM 34.4186 -99.8292 301° West 438 504 36,000  Level Albuquerque Center
Sun 03:18:37 PM 34.4808 -99.9572 301° West 438 504 36,000  Level Albuquerque Center
Sun 03:19:39 PM 34.5428 -100.0839 301° West 436 502 36,000  Level Albuquerque Center
Sun 03:20:41 PM 34.6022 -100.1972 303° West 436 502 36,000  Level Albuquerque Center
Sun 03:21:43 PM 34.6722 -100.3347 302° West 437 503 36,000  Level Albuquerque Center
Sun 03:22:45 PM 34.7428 -100.4722 302° West 437 503 36,000  Level Albuquerque Center
Sun 03:23:47 PM 34.8069 -100.5989 302° West 438 504 36,000  Level Albuquerque Center
Sun 03:24:49 PM 34.8711 -100.7250 302° West 440 506 36,000  Level Albuquerque Center
Sun 03:25:51 PM 34.9350 -100.8522 302° West 441 507 36,000  Level Albuquerque Center
Sun 03:26:53 PM 34.9836 -100.9906 293° West 442 509 36,000  Level Albuquerque Center
Sun 03:27:55 PM 35.0375 -101.1617 291° West 449 517 36,000  Level Albuquerque Center
Sun 03:28:57 PM 35.0817 -101.3039 291° West 449 517 36,000  Level Albuquerque Center
Sun 03:29:59 PM 35.1242 -101.4403 291° West 453 521 36,000  Level Albuquerque Center
Sun 03:31:01 PM 35.1686 -101.5853 291° West 454 522 36,000  Level Albuquerque Center
Sun 03:32:03 PM 35.2181 -101.7522 290° West 453 521 36,000  Level Albuquerque Center
Sun 03:33:05 PM 35.2619 -101.8992 290° West 455 524 36,000  Level Albuquerque Center
Sun 03:34:07 PM 35.3025 -102.0392 290° West 454 522 36,000  Level Albuquerque Center
Sun 03:35:09 PM 35.3461 -102.1850 290° West 455 524 36,000  Level Albuquerque Center
Sun 03:36:11 PM 35.3975 -102.3586 290° West 453 521 36,000  Level Albuquerque Center
Sun 03:37:13 PM 35.4408 -102.5019 290° West 450 518 36,000  Level Albuquerque Center
Sun 03:38:15 PM 35.4847 -102.6528 290° West 452 520 36,000  Level Albuquerque Center
Sun 03:39:17 PM 35.5283 -102.7986 290° West 453 521 36,000  Level Albuquerque Center
Sun 03:40:19 PM 35.5725 -102.9444 290° West 453 521 36,000  Level Albuquerque Center
Sun 03:41:21 PM 35.6128 -103.0889 289° West 447 514 36,000  Level Albuquerque Center
Sun 03:42:23 PM 35.6556 -103.2350 290° West 450 518 36,000  Level Albuquerque Center
Sun 03:43:25 PM 35.6969 -103.3811 289° West 451 519 36,000  Level Albuquerque Center
Sun 03:44:27 PM 35.7478 -103.5533 290° West 455 524 36,000  Level Albuquerque Center
Sun 03:45:29 PM 35.7889 -103.6994 289° West 452 520 36,000  Level Albuquerque Center
Sun 03:46:31 PM 35.8308 -103.8478 289° West 455 524 36,000  Level Albuquerque Center
Sun 03:47:34 PM 35.8719 -103.9964 289° West 457 526 36,000  Level Albuquerque Center
Sun 03:48:36 PM 35.9133 -104.1444 289° West 456 525 36,000  Level Albuquerque Center
Sun 03:49:38 PM 35.9542 -104.2922 289° West 455 524 36,000  Level Albuquerque Center
Sun 03:50:40 PM 36.0022 -104.4661 289° West 456 525 36,000  Level Albuquerque Center
Sun 03:51:42 PM 36.0450 -104.6139 290° West 455 524 36,000  Level Albuquerque Center
Sun 03:52:44 PM 36.0853 -104.7622 289° West 454 522 36,000  Level Albuquerque Center
Sun 03:53:46 PM 36.1244 -104.9108 288° West 453 521 36,000  Level Albuquerque Center
Sun 03:54:48 PM 36.1644 -105.0603 288° West 454 522 36,000  Level Albuquerque Center
Sun 03:55:49 PM 36.2033 -105.2089 288° West 453 521 36,000  Level Albuquerque Center
Sun 03:56:52 PM 36.2425 -105.3564 288° West 450 518 36,000  Level Albuquerque Center
Sun 03:57:54 PM 36.2903 -105.5272 289° West 448 516 36,000  Level Albuquerque Center
Sun 03:58:56 PM 36.3281 -105.6731 288° West 446 513 36,000  Level Albuquerque Center
Sun 03:59:58 PM 36.3669 -105.8200 288° West 448 516 36,000  Level Albuquerque Center
Sun 04:01:00 PM 36.4058 -105.9678 288° West 451 519 36,000  Level Albuquerque Center
Sun 04:02:02 PM 36.4483 -106.1286 288° West 450 518 36,000  Level Albuquerque Center
Sun 04:03:04 PM 36.4839 -106.2700 287° West 449 517 36,000  Level Albuquerque Center
Sun 04:04:06 PM 36.5264 -106.4358 288° West 450 518 36,000  Level Albuquerque Center
Sun 04:05:08 PM 36.5642 -106.5767 289° West 449 517 36,000  Level Albuquerque Center
Sun 04:05:51 PM 36.5925 -106.6944 287° West 450 518 36,000  Level Denver Center
Sun 04:06:53 PM 36.6222 -106.8117 288° West 450 518 36,000  Level Denver Center
Sun 04:07:55 PM 36.6686 -107.0006 287° West 446 513 36,000  Level Denver Center
Sun 04:08:57 PM 36.7033 -107.1419 287° West 447 514 36,000  Level Denver Center
Sun 04:09:59 PM 36.7450 -107.3075 287° West 448 516 36,000  Level Denver Center
Sun 04:11:13 PM 36.7803 -107.4489 287° West 448 516 36,000  Level Denver Center
Sun 04:12:16 PM 36.8269 -107.6381 287° West 448 516 36,000  Level Denver Center
Sun 04:13:18 PM 36.8611 -107.7803 287° West 449 517 36,000  Level Denver Center
Sun 04:14:20 PM 36.9006 -107.9464 287° West 446 513 36,000  Level Denver Center
Sun 04:15:22 PM 36.9356 -108.0892 287° West 448 516 36,000  Level Denver Center
Sun 04:16:24 PM 36.9744 -108.2553 286° West 448 516 36,000  Level Denver Center
Sun 04:17:26 PM 37.0092 -108.3994 287° West 451 519 36,000  Level Denver Center
Sun 04:18:28 PM 37.0472 -108.5636 286° West 444 511 36,000  Level Denver Center
Sun 04:19:30 PM 37.0808 -108.7044 287° West 443 510 36,000  Level Denver Center
Sun 04:20:32 PM 37.1194 -108.8697 286° West 444 511 36,000  Level Denver Center
Sun 04:21:34 PM 37.1514 -109.0094 286° West 440 506 36,000  Level Denver Center
Sun 04:22:36 PM 37.1889 -109.1756 286° West 442 509 36,000  Level Denver Center
Sun 04:23:38 PM 37.2206 -109.3169 286° West 443 510 36,000  Level Denver Center
Sun 04:24:40 PM 37.2583 -109.4806 286° West 439 505 36,000  Level Denver Center
Sun 04:25:42 PM 37.2894 -109.6236 285° West 443 510 36,000  Level Denver Center
Sun 04:26:44 PM 37.3275 -109.7867 286° West 438 504 36,000  Level Denver Center
Sun 04:27:46 PM 37.3586 -109.9294 285° West 442 509 36,000  Level Denver Center
Sun 04:28:48 PM 37.3958 -110.0944 286° West 441 507 36,000  Level Denver Center
Sun 04:29:50 PM 37.4281 -110.2453 285° West 440 506 36,000  Level Denver Center
Sun 04:30:52 PM 37.4603 -110.3942 285° West 442 509 36,000  Level Denver Center
Sun 04:31:54 PM 37.4917 -110.5431 285° West 441 507 36,000  Level Denver Center
Sun 04:32:56 PM 37.5247 -110.6914 286° West 440 506 36,000  Level Denver Center
Sun 04:33:58 PM 37.5569 -110.8403 285° West 441 507 36,000  Level Denver Center
Sun 04:35:00 PM 37.5947 -111.0189 285° West 441 507 36,000  Level Denver Center
Sun 04:36:02 PM 37.6253 -111.1678 285° West 440 506 36,000  Level Denver Center
Sun 04:36:59 PM 37.6556 -111.3167 284° West 439 505 36,000  Level Salt Lake Center
Sun 04:38:01 PM 37.6867 -111.4650 285° West 439 505 36,000  Level Salt Lake Center
Sun 04:39:03 PM 37.7183 -111.6136 285° West 439 505 36,000  Level Salt Lake Center
Sun 04:40:04 PM 37.7461 -111.7608 283° West 436 502 36,000  Level Salt Lake Center
Sun 04:41:06 PM 37.7775 -111.9092 285° West 437 503 36,000  Level Salt Lake Center
Sun 04:42:08 PM 37.8069 -112.0578 284° West 438 504 36,000  Level Salt Lake Center
Sun 04:43:09 PM 37.8369 -112.2064 284° West 440 506 36,000  Level Salt Lake Center
Sun 04:44:11 PM 37.8731 -112.3861 284° West 442 509 36,000  Level Salt Lake Center
Sun 04:45:13 PM 37.9028 -112.5350 284° West 441 507 36,000  Level Salt Lake Center
Sun 04:46:14 PM 37.9317 -112.6833 284° West 441 507 36,000  Level Salt Lake Center
Sun 04:47:16 PM 37.9603 -112.8331 284° West 442 509 36,000  Level Salt Lake Center
Sun 04:48:18 PM 37.9889 -112.9825 284° West 442 509 36,000  Level Salt Lake Center
Sun 04:49:20 PM 38.0228 -113.1625 283° West 441 507 36,000  Level Salt Lake Center
Sun 04:50:21 PM 38.0503 -113.3122 283° West 440 506 36,000  Level Salt Lake Center
Sun 04:51:23 PM 38.0794 -113.4617 284° West 439 505 36,000  Level Salt Lake Center
Sun 04:52:25 PM 38.1069 -113.6117 283° West 438 504 36,000  Level Salt Lake Center
Sun 04:53:26 PM 38.1336 -113.7603 283° West 435 501 36,000  Level Salt Lake Center
Sun 04:54:28 PM 38.1631 -113.9078 284° West 433 498 36,000  Level Salt Lake Center
Sun 04:55:30 PM 38.1900 -114.0575 283° West 435 501 36,000  Level Salt Lake Center
Sun 04:56:31 PM 38.2222 -114.2369 283° West 436 502 36,000  Level Salt Lake Center
Sun 04:57:33 PM 38.2478 -114.3847 282° West 432 497 36,000  Level Salt Lake Center
Sun 04:58:35 PM 38.2425 -114.5408 268° West 442 509 36,000  Level Salt Lake Center
Sun 04:59:36 PM 38.2419 -114.6964 270° West 444 511 36,000  Level Salt Lake Center
Sun 05:00:38 PM 38.2356 -114.8514 267° West 441 507 36,000  Level Salt Lake Center
Sun 05:01:39 PM 38.2286 -115.0064 267° West 443 510 36,000  Level Salt Lake Center
Sun 05:02:41 PM 38.2222 -115.1622 267° West 443 510 36,000  Level Salt Lake Center
Sun 05:03:43 PM 38.2150 -115.3425 267° West 440 506 36,000  Level Salt Lake Center
Sun 05:04:44 PM 38.2081 -115.4975 267° West 439 505 36,000  Level Salt Lake Center
Sun 05:05:46 PM 38.2025 -115.6536 267° West 441 507 36,000  Level Salt Lake Center
Sun 05:06:47 PM 38.1950 -115.8094 267° West 442 509 36,000  Level Salt Lake Center
Sun 05:07:49 PM 38.1869 -115.9642 266° West 442 509 36,000  Level Salt Lake Center
Sun 05:08:50 PM 38.1800 -116.1192 267° West 440 506 36,000  Level Salt Lake Center
Sun 05:09:52 PM 38.1722 -116.2756 266° West 442 509 36,000  Level Salt Lake Center
Sun 05:10:54 PM 38.1647 -116.4317 267° West 442 509 36,000  Level Salt Lake Center
Sun 05:11:55 PM 38.1553 -116.6169 266° West 440 506 36,000  Level Salt Lake Center
Sun 05:12:57 PM 38.1472 -116.7725 266° West 441 507 36,000  Level Salt Lake Center
Sun 05:13:58 PM 38.1392 -116.9258 266° West 436 502 36,000  Level Salt Lake Center
Sun 05:15:00 PM 38.1306 -117.0736 266° West 424 488 36,000  Level Salt Lake Center
Sun 05:16:02 PM 38.1217 -117.2258 266° West 424 488 36,000  Level Salt Lake Center
Sun 05:17:03 PM 38.0939 -117.3861 258° West 429 494 36,000  Level Salt Lake Center
Sun 05:18:05 PM 38.0597 -117.5319 253° West 430 495 36,000  Level Salt Lake Center
Sun 05:19:07 PM 38.0258 -117.6783 254° West 433 498 36,000  Level Salt Lake Center
Sun 05:20:09 PM 37.9958 -117.8258 256° West 432 497 36,000  Level Salt Lake Center
Sun 05:21:11 PM 37.9817 -117.9772 263° West 431 496 36,000  Level Salt Lake Center
Sun 05:22:12 PM 37.9664 -118.1283 263° West 431 496 36,000  Level Salt Lake Center
Sun 05:23:14 PM 37.9472 -118.3083 262° West 430 495 36,000  Level Salt Lake Center
Sun 05:24:16 PM 37.9303 -118.4583 262° West 431 496 36,000  Level Salt Lake Center
Sun 05:25:23 PM 37.9131 -118.6089 262° West 430 495 36,000  Level Oakland Center
Sun 05:26:25 PM 37.8953 -118.7578 261° West 428 493 36,000  Level Oakland Center
Sun 05:27:26 PM 37.8769 -118.9364 263° West 426 490 36,000  Level Oakland Center
Sun 05:28:27 PM 37.8611 -119.0722 262° West 429 494 36,000  Level Oakland Center
Sun 05:29:29 PM 37.8422 -119.2242 261° West 437 503 36,000  Level Oakland Center
Sun 05:31:32 PM 37.8081 -119.5242 262° West 431 496 36,000  Level Oakland Center
Sun 05:32:33 PM 37.7903 -119.6742 262° West 433 498 36,000 -98 Level Oakland Center
Sun 05:33:35 PM 37.7703 -119.8550 262° West 433 498 35,800 -683 Descending Oakland Center
Sun 05:34:36 PM 37.7517 -120.0050 261° West 432 497 34,600 -1,854 Descending Oakland Center
Sun 05:35:38 PM 37.7325 -120.1592 261° West 437 503 32,000 -2,341 Descending Oakland Center
Sun 05:36:39 PM 37.7117 -120.3133 260° West 442 509 29,800 -2,146 Descending Oakland Center
Sun 05:37:41 PM 37.6922 -120.4608 261° West 430 495 27,600 -1,610 Descending Oakland Center
Sun 05:38:42 PM 37.6744 -120.5994 261° West 405 466 26,500 -1,649 Descending Oakland Center
Sun 05:39:52 PM 37.6500 -120.7667 260° West 366 421 24,000 -2,123 Descending Northern Cal TRACON
Sun 05:40:52 PM 37.6333 -120.8833 260° West 361 415 21,900 -2,150 Descending Northern Cal TRACON
Sun 05:41:52 PM 37.6167 -121.0167 261° West 354 407 19,700 -1,950 Descending Northern Cal TRACON
Sun 05:42:52 PM 37.6167 -121.1167 270° West 349 402 18,000 -1,700 Descending Northern Cal TRACON
Sun 05:43:52 PM 37.6000 -121.2333 260° West 344 396 16,300 -1,700 Descending Northern Cal TRACON
Sun 05:44:52 PM 37.5833 -121.3500 260° West 330 380 14,600 -1,650 Descending Northern Cal TRACON
Sun 05:45:52 PM 37.5667 -121.4667 260° West 323 372 13,000 -1,600 Descending Northern Cal TRACON
Sun 05:46:52 PM 37.5500 -121.5667 258° West 318 366 11,400 -1,350 Descending Northern Cal TRACON
Sun 05:47:52 PM 37.5333 -121.6833 260° West 303 349 10,300 -1,100 Descending Northern Cal TRACON
Sun 05:48:52 PM 37.5167 -121.7833 258° West 288 331 9,200 -950 Descending Northern Cal TRACON
Sun 05:49:52 PM 37.5000 -121.8667 256° West 261 300 8,400 -600 Descending Northern Cal TRACON
Sun 05:50:52 PM 37.4833 -121.9333 253° West 218 251 8,000 -650 Descending Northern Cal TRACON
Sun 05:51:52 PM 37.5000 -122.0000 288° West 199 229 7,100 -1,150 Descending Northern Cal TRACON
Sun 05:52:52 PM 37.5167 -122.0667 288° West 198 228 5,700 -1,400 Descending Northern Cal TRACON
Sun 05:53:52 PM 37.5333 -122.1333 288° West 199 229 4,300 -1,350 Descending Northern Cal TRACON
Sun 05:54:52 PM 37.5667 -122.2000 302° West 197 227 3,000 -1,300 Descending Northern Cal TRACON

Login

Don't have an account? Register now (free) for customized features, flight alerts, and more!